createdAt,value
2018-07-20T00:01:37.835Z,14.80
2018-07-20T00:04:06.818Z,14.80
2018-07-20T00:06:35.223Z,14.70
2018-07-20T00:09:04.120Z,14.70
2018-07-20T00:11:32.757Z,14.70
2018-07-20T00:14:01.115Z,14.60
2018-07-20T00:18:58.333Z,14.60
2018-07-20T00:21:26.726Z,14.50
2018-07-20T00:23:55.145Z,14.50
2018-07-20T00:26:23.435Z,14.50
2018-07-20T00:28:51.612Z,14.40
2018-07-20T00:31:19.957Z,14.40
2018-07-20T00:33:48.229Z,14.40
2018-07-20T00:36:16.532Z,14.40
2018-07-20T00:38:45.511Z,14.30
2018-07-20T00:41:13.899Z,14.30
2018-07-20T00:43:42.114Z,14.30
2018-07-20T00:48:39.134Z,14.30
2018-07-20T00:51:07.619Z,14.30
2018-07-20T00:53:36.262Z,14.20
2018-07-20T00:56:05.051Z,14.20
2018-07-20T00:58:33.436Z,14.20
2018-07-20T01:03:30.426Z,14.20
2018-07-20T01:05:58.564Z,14.10
2018-07-20T01:08:27.459Z,14.10
2018-07-20T01:10:55.826Z,14.10
2018-07-20T01:13:24.341Z,14.10
2018-07-20T01:15:52.747Z,14.00
2018-07-20T01:18:21.157Z,14.00
2018-07-20T01:20:49.455Z,14.00
2018-07-20T01:23:18.899Z,14.00
2018-07-20T01:25:47.589Z,14.00
2018-07-20T01:28:16.582Z,13.90
2018-07-20T01:30:45.565Z,13.90
2018-07-20T01:33:13.909Z,13.90
2018-07-20T01:35:42.096Z,13.80
2018-07-20T01:38:10.294Z,13.80
2018-07-20T01:40:38.578Z,13.80
2018-07-20T01:43:07.834Z,13.70
2018-07-20T01:45:36.309Z,13.70
2018-07-20T01:48:04.836Z,13.70
2018-07-20T01:50:33.989Z,13.70
2018-07-20T01:53:03.540Z,13.60
2018-07-20T01:58:00.571Z,13.60
2018-07-20T02:00:29.067Z,13.50
2018-07-20T02:02:57.333Z,13.50
2018-07-20T02:05:25.876Z,13.50
2018-07-20T02:07:55.183Z,13.50
2018-07-20T02:17:47.845Z,13.40
2018-07-20T02:20:16.241Z,13.30
2018-07-20T02:22:44.676Z,13.30
2018-07-20T02:25:13.058Z,13.30
2018-07-20T02:27:42.067Z,13.20
2018-07-20T02:32:39.199Z,13.20
2018-07-20T02:35:07.659Z,13.20
2018-07-20T02:37:35.864Z,13.20
2018-07-20T02:45:00.850Z,13.10
2018-07-20T02:47:29.070Z,13.00
2018-07-20T02:52:25.946Z,13.00
2018-07-20T02:54:54.268Z,13.00
2018-07-20T02:57:22.768Z,13.00
2018-07-20T03:02:19.457Z,12.90
2018-07-20T03:07:15.728Z,12.90
2018-07-20T03:09:44.131Z,12.90
2018-07-20T03:12:12.518Z,12.90
2018-07-20T03:14:41.147Z,12.90
2018-07-20T03:17:09.829Z,12.90
2018-07-20T03:19:38.064Z,12.90
2018-07-20T03:22:08.019Z,12.80
2018-07-20T03:24:36.950Z,12.80
2018-07-20T03:27:05.667Z,12.80
2018-07-20T03:29:33.909Z,12.80
2018-07-20T03:32:02.270Z,12.80
2018-07-20T03:34:30.915Z,12.80
2018-07-20T03:36:59.279Z,12.90
2018-07-20T03:39:27.816Z,12.90
2018-07-20T03:41:56.195Z,12.90
2018-07-20T03:44:24.602Z,13.00
2018-07-20T03:46:52.926Z,13.00
2018-07-20T03:49:21.394Z,13.00
2018-07-20T03:51:49.912Z,13.00
2018-07-20T03:54:17.992Z,13.10
2018-07-20T03:56:46.201Z,13.10
2018-07-20T04:01:42.597Z,13.20
2018-07-20T04:04:10.773Z,13.30
2018-07-20T04:06:39.372Z,13.30
2018-07-20T04:11:36.991Z,13.50
2018-07-20T04:16:34.013Z,13.70
2018-07-20T04:19:02.291Z,14.30
2018-07-20T04:21:30.823Z,14.80
2018-07-20T04:23:59.078Z,15.40
2018-07-20T04:26:27.596Z,16.20
2018-07-20T04:31:24.216Z,17.90
2018-07-20T04:33:52.396Z,18.70
2018-07-20T04:38:49.124Z,20.20
2018-07-20T04:41:17.486Z,20.80
2018-07-20T04:46:14.076Z,22.00
2018-07-20T04:48:42.573Z,22.50
2018-07-20T04:51:11.093Z,22.90
2018-07-20T04:53:39.380Z,23.40
2018-07-20T05:03:32.160Z,24.90
2018-07-20T05:06:01.260Z,25.30
2018-07-20T05:08:29.690Z,25.70
2018-07-20T05:10:57.987Z,26.20
2018-07-20T05:13:26.730Z,26.80
2018-07-20T05:15:55.614Z,27.30
2018-07-20T05:18:24.194Z,27.70
2018-07-20T05:23:20.802Z,28.70
2018-07-20T05:25:49.292Z,29.10
2018-07-20T05:33:13.795Z,30.10
2018-07-20T05:35:42.270Z,30.10
2018-07-20T05:38:11.246Z,30.20
2018-07-20T05:40:39.695Z,30.50
2018-07-20T05:45:35.866Z,31.60
2018-07-20T05:48:04.212Z,32.10
2018-07-20T05:50:33.000Z,32.70
2018-07-20T05:53:03.418Z,33.30
2018-07-20T05:55:31.637Z,33.80
2018-07-20T05:58:00.022Z,34.20
2018-07-20T06:00:28.909Z,34.60
2018-07-20T06:02:57.429Z,35.00
2018-07-20T06:05:25.866Z,35.40
2018-07-20T06:07:54.146Z,35.90
2018-07-20T06:10:22.852Z,36.20
2018-07-20T06:12:51.347Z,36.40
2018-07-20T06:17:48.148Z,36.50
2018-07-20T06:25:12.490Z,36.90
2018-07-20T06:27:40.732Z,37.30
2018-07-20T06:30:09.231Z,38.00
2018-07-20T06:35:05.939Z,39.00
2018-07-20T06:37:34.433Z,39.50
2018-07-20T06:40:03.009Z,39.80
2018-07-20T06:42:31.457Z,40.20
2018-07-20T06:44:59.829Z,40.70
2018-07-20T06:49:56.501Z,41.60
2018-07-20T06:52:25.139Z,41.80
2018-07-20T06:54:53.523Z,42.10
2018-07-20T06:57:21.683Z,42.00
2018-07-20T06:59:50.409Z,41.70
2018-07-20T07:02:18.729Z,41.50
2018-07-20T07:07:15.104Z,41.50
2018-07-20T07:12:11.414Z,42.00
2018-07-20T07:14:39.722Z,41.90
2018-07-20T07:17:08.112Z,41.80
2018-07-20T07:19:36.518Z,42.30
2018-07-20T07:22:05.073Z,42.90
2018-07-20T07:24:33.804Z,43.60
2018-07-20T07:29:30.208Z,43.80
2018-07-20T07:31:58.595Z,44.00
2018-07-20T07:39:22.756Z,45.50
2018-07-20T07:41:51.165Z,45.70
2018-07-20T07:44:19.540Z,46.00
2018-07-20T07:46:47.875Z,45.90
2018-07-20T07:49:16.918Z,45.90
2018-07-20T07:51:45.999Z,46.40
2018-07-20T07:56:43.117Z,46.90
2018-07-20T07:59:11.491Z,46.80
2018-07-20T08:01:39.794Z,47.10
2018-07-20T08:04:08.228Z,47.20
2018-07-20T08:06:36.860Z,47.20
2018-07-20T08:09:08.344Z,47.40
2018-07-20T08:11:37.124Z,47.50
2018-07-20T08:14:06.432Z,47.40
2018-07-20T08:16:34.898Z,46.80
2018-07-20T08:19:03.421Z,45.70
2018-07-20T08:21:31.897Z,44.60
2018-07-20T08:24:00.424Z,43.70
2018-07-20T08:26:28.792Z,43.50
2018-07-20T08:28:57.615Z,43.30
2018-07-20T08:31:25.920Z,43.10
2018-07-20T08:36:22.399Z,41.00
2018-07-20T08:38:51.021Z,39.70
2018-07-20T08:43:47.523Z,37.20
2018-07-20T08:46:15.938Z,36.20
2018-07-20T08:48:44.324Z,35.30
2018-07-20T08:51:13.333Z,34.60
2018-07-20T09:01:05.890Z,32.20
2018-07-20T09:03:34.307Z,32.10
2018-07-20T09:06:02.696Z,31.80
2018-07-20T09:13:27.256Z,31.60
2018-07-20T09:15:55.493Z,31.40
2018-07-20T09:18:23.745Z,31.30
2018-07-20T09:20:52.722Z,31.30
2018-07-20T09:23:21.198Z,31.10
2018-07-20T09:25:50.300Z,30.60
2018-07-20T09:28:19.263Z,30.10
2018-07-20T09:30:47.412Z,29.60
2018-07-20T09:35:44.330Z,29.40
2018-07-20T09:38:12.706Z,29.40
2018-07-20T09:40:41.720Z,29.60
2018-07-20T09:45:38.016Z,29.40
2018-07-20T09:50:34.297Z,29.50
2018-07-20T09:53:02.578Z,29.50
2018-07-20T09:55:30.819Z,29.50
2018-07-20T09:57:59.002Z,29.50
2018-07-20T10:03:00.856Z,29.10
2018-07-20T10:05:29.226Z,28.90
2018-07-20T10:07:57.681Z,28.90
2018-07-20T10:10:25.996Z,28.90
2018-07-20T10:12:54.407Z,28.80
2018-07-20T10:17:50.786Z,28.70
2018-07-20T10:20:19.344Z,28.80
2018-07-20T10:22:47.899Z,28.70
2018-07-20T10:25:16.203Z,28.90
2018-07-20T10:30:12.593Z,29.20
2018-07-20T10:32:41.076Z,29.20
2018-07-20T10:37:37.689Z,29.20
2018-07-20T10:40:06.070Z,29.10
2018-07-20T10:42:34.373Z,28.90
2018-07-20T10:45:02.894Z,28.80
2018-07-20T10:47:31.197Z,28.70
2018-07-20T10:49:59.549Z,28.60
2018-07-20T10:52:27.977Z,28.60
2018-07-20T10:54:56.470Z,28.60
2018-07-20T10:59:53.133Z,28.50
2018-07-20T11:02:21.477Z,28.40
2018-07-20T11:07:17.824Z,28.30
2018-07-20T11:09:45.949Z,28.30
2018-07-20T11:14:42.450Z,28.50
2018-07-20T11:19:38.604Z,28.80
2018-07-20T11:22:07.664Z,29.00
2018-07-20T11:24:35.947Z,29.10
2018-07-20T11:29:32.121Z,29.30
2018-07-20T11:32:00.618Z,29.40
2018-07-20T11:34:28.927Z,29.40
2018-07-20T11:36:57.529Z,29.30
2018-07-20T11:41:55.208Z,29.10
2018-07-20T11:44:23.449Z,28.90
2018-07-20T11:49:19.846Z,28.40
2018-07-20T11:54:16.688Z,28.40
2018-07-20T11:56:45.148Z,28.50
2018-07-20T11:59:13.530Z,28.70
2018-07-20T12:01:41.938Z,28.80
2018-07-20T12:04:10.552Z,29.00
2018-07-20T12:06:38.932Z,28.90
2018-07-20T12:09:10.090Z,28.80
2018-07-20T12:11:38.627Z,28.90
2018-07-20T12:14:06.813Z,29.10
2018-07-20T12:16:35.127Z,29.30
2018-07-20T12:19:03.447Z,29.40
2018-07-20T12:24:00.008Z,29.50
2018-07-20T12:26:28.799Z,29.60
2018-07-20T12:31:25.281Z,29.80
2018-07-20T12:33:53.830Z,29.80
2018-07-20T12:36:21.999Z,29.90
2018-07-20T12:38:50.311Z,29.80
2018-07-20T12:41:18.784Z,29.60
2018-07-20T12:46:15.292Z,29.40
2018-07-20T12:51:11.734Z,29.30
2018-07-20T12:53:40.590Z,29.30
2018-07-20T12:58:37.007Z,29.30
2018-07-20T13:01:05.234Z,29.30
2018-07-20T13:03:33.450Z,29.20
2018-07-20T13:06:01.804Z,29.20
2018-07-20T13:08:30.284Z,29.20
2018-07-20T13:10:58.761Z,29.30
2018-07-20T13:13:27.130Z,29.20
2018-07-20T13:15:55.235Z,29.00
2018-07-20T13:18:23.570Z,28.70
2018-07-20T13:20:52.171Z,28.60
2018-07-20T13:23:20.819Z,28.60
2018-07-20T13:25:50.507Z,28.70
2018-07-20T13:28:20.059Z,28.60
2018-07-20T13:30:49.667Z,28.40
2018-07-20T13:33:18.905Z,28.20
2018-07-20T13:35:48.017Z,28.10
2018-07-20T13:38:16.824Z,28.20
2018-07-20T13:40:45.520Z,28.20
2018-07-20T13:43:14.445Z,28.20
2018-07-20T13:45:43.432Z,28.20
2018-07-20T13:48:11.922Z,28.20
2018-07-20T13:50:40.207Z,28.20
2018-07-20T13:58:05.333Z,28.30
2018-07-20T14:00:33.929Z,28.30
2018-07-20T14:03:02.463Z,28.30
2018-07-20T14:05:31.028Z,28.30
2018-07-20T14:10:27.533Z,28.30
2018-07-20T14:12:56.422Z,28.30
2018-07-20T14:15:24.845Z,28.50
2018-07-20T14:17:53.617Z,28.50
2018-07-20T14:20:22.029Z,28.70
2018-07-20T14:22:50.721Z,28.80
2018-07-20T14:25:19.047Z,28.80
2018-07-20T14:30:15.421Z,28.60
2018-07-20T14:42:36.607Z,28.30
2018-07-20T14:47:33.323Z,28.50
2018-07-20T14:52:29.872Z,28.60
2018-07-20T14:54:59.566Z,28.70
2018-07-20T14:57:28.810Z,28.80
2018-07-20T14:59:57.468Z,28.80
2018-07-20T15:02:26.021Z,28.80
2018-07-20T15:04:55.112Z,28.70
2018-07-20T15:07:23.281Z,28.60
2018-07-20T15:12:20.061Z,28.40
2018-07-20T15:14:48.494Z,28.20
2018-07-20T15:17:17.086Z,28.00
2018-07-20T15:22:13.647Z,27.70
2018-07-20T15:24:42.076Z,27.70
2018-07-20T15:27:11.690Z,27.80
2018-07-20T15:32:07.997Z,28.10
2018-07-20T15:34:36.256Z,28.10
2018-07-20T15:37:04.810Z,28.30
2018-07-20T15:39:33.144Z,28.40
2018-07-20T15:42:01.498Z,28.40
2018-07-20T15:44:29.751Z,28.40
2018-07-20T15:46:58.880Z,28.30
2018-07-20T15:49:27.175Z,28.30
2018-07-20T15:53:35.344Z,28.10
2018-07-20T15:54:24.188Z,28.00
2018-07-20T15:56:52.665Z,28.00
2018-07-20T15:59:20.985Z,27.90
2018-07-20T16:06:45.658Z,27.80
2018-07-20T16:09:14.142Z,27.80
2018-07-20T16:11:42.649Z,27.90
2018-07-20T16:14:10.785Z,27.90
2018-07-20T16:16:39.033Z,28.00
2018-07-20T16:19:08.184Z,28.00
2018-07-20T16:21:36.798Z,28.10
2018-07-20T16:29:01.584Z,28.00
2018-07-20T16:33:58.076Z,27.80
2018-07-20T16:36:26.676Z,27.80
2018-07-20T16:38:55.075Z,27.70
2018-07-20T16:41:23.606Z,27.60
2018-07-20T16:43:53.095Z,27.60
2018-07-20T16:46:21.483Z,27.50
2018-07-20T16:48:50.579Z,27.30
2018-07-20T16:51:18.926Z,27.20
2018-07-20T16:53:47.127Z,27.10
2018-07-20T16:56:16.102Z,27.10
2018-07-20T16:58:44.536Z,27.00
2018-07-20T17:01:13.006Z,27.00
2018-07-20T17:03:41.323Z,27.00
2018-07-20T17:11:05.813Z,26.80
2018-07-20T17:16:02.701Z,26.70
2018-07-20T17:18:31.720Z,26.60
2018-07-20T17:21:00.012Z,26.50
2018-07-20T17:23:28.299Z,26.50
2018-07-20T17:25:56.727Z,26.40
2018-07-20T17:28:25.941Z,26.30
2018-07-20T17:33:22.429Z,26.10
2018-07-20T17:38:19.276Z,25.90
2018-07-20T17:40:47.764Z,25.80
2018-07-20T17:43:16.235Z,25.80
2018-07-20T17:48:12.736Z,25.60
2018-07-20T17:50:41.127Z,25.50
2018-07-20T18:00:34.204Z,25.10
2018-07-20T18:03:02.479Z,25.00
2018-07-20T18:05:30.933Z,24.90
2018-07-20T18:08:01.984Z,24.80
2018-07-20T18:10:30.341Z,24.70
2018-07-20T18:12:58.783Z,24.50
2018-07-20T18:15:27.688Z,24.50
2018-07-20T18:17:56.014Z,24.40
2018-07-20T18:20:24.379Z,24.30
2018-07-20T18:37:42.688Z,23.60
2018-07-20T18:40:10.872Z,23.50
2018-07-20T18:42:39.228Z,23.40
2018-07-20T18:45:08.072Z,23.30
2018-07-20T18:50:08.593Z,23.10
2018-07-20T18:52:39.227Z,23.00
2018-07-20T18:55:09.042Z,22.90
2018-07-20T18:57:39.315Z,22.80
2018-07-20T19:00:10.490Z,22.70
2018-07-20T19:02:39.533Z,22.60
2018-07-20T19:05:08.039Z,22.50
2018-07-20T19:10:05.156Z,22.30
2018-07-20T19:12:33.737Z,22.10
2018-07-20T19:15:02.248Z,22.00
2018-07-20T19:17:30.640Z,22.00
2018-07-20T19:19:59.023Z,21.90
2018-07-20T19:22:28.067Z,21.80
2018-07-20T19:27:24.526Z,21.60
2018-07-20T19:29:53.278Z,21.60
2018-07-20T19:32:21.766Z,21.50
2018-07-20T19:39:46.533Z,21.30
2018-07-20T19:42:14.898Z,21.20
2018-07-20T19:44:43.266Z,21.20
2018-07-20T19:47:12.901Z,21.10
2018-07-20T19:49:42.583Z,21.00
2018-07-20T19:52:10.811Z,21.00
2018-07-20T19:54:40.314Z,20.90
2018-07-20T19:59:36.505Z,20.80
2018-07-20T20:02:05.607Z,20.80
2018-07-20T20:04:34.451Z,20.70
2018-07-20T20:07:02.931Z,20.70
2018-07-20T20:09:31.241Z,20.70
2018-07-20T20:16:56.041Z,20.60
2018-07-20T20:19:24.556Z,20.60
2018-07-20T20:21:52.738Z,20.60
2018-07-20T20:24:21.136Z,20.50
2018-07-20T20:26:50.052Z,20.50
2018-07-20T20:29:18.593Z,20.50
2018-07-20T20:31:50.894Z,20.40
2018-07-20T20:34:20.577Z,20.40
2018-07-20T20:36:52.441Z,20.30
2018-07-20T20:39:23.860Z,20.30
2018-07-20T20:41:55.143Z,20.20
2018-07-20T20:44:25.194Z,20.20
2018-07-20T20:46:55.537Z,20.10
2018-07-20T20:49:25.839Z,20.00
2018-07-20T20:51:54.194Z,20.00
2018-07-20T20:56:52.390Z,19.90
2018-07-20T20:59:20.733Z,19.80
2018-07-20T21:01:49.519Z,19.80
2018-07-20T21:04:19.770Z,19.80
2018-07-20T21:06:48.204Z,19.70
2018-07-20T21:09:16.252Z,19.70
2018-07-20T21:16:40.736Z,19.60
2018-07-20T21:19:09.258Z,19.50
2018-07-20T21:21:37.647Z,19.50
2018-07-20T21:24:09.303Z,19.50
2018-07-20T21:29:07.215Z,19.40
2018-07-20T21:31:37.598Z,19.40
2018-07-20T21:34:05.855Z,19.40
2018-07-20T21:36:33.853Z,19.40
2018-07-20T21:39:02.655Z,19.40
2018-07-20T21:41:31.063Z,19.30
2018-07-20T21:43:59.703Z,19.30
2018-07-20T21:46:27.964Z,19.30
2018-07-20T21:51:24.570Z,19.20
2018-07-20T21:58:49.127Z,19.10
2018-07-20T22:01:17.461Z,19.10
2018-07-20T22:06:13.984Z,19.10
2018-07-20T22:08:42.364Z,19.10
2018-07-20T22:11:10.743Z,19.10
2018-07-20T22:13:38.812Z,19.00
2018-07-20T22:16:07.040Z,19.00
2018-07-20T22:21:04.555Z,18.90
2018-07-20T22:26:01.677Z,18.70
2018-07-20T22:28:31.204Z,18.70
2018-07-20T22:30:59.700Z,18.60
2018-07-20T22:33:28.080Z,18.60
2018-07-20T22:35:56.368Z,18.50
2018-07-20T22:38:24.784Z,18.40
2018-07-20T22:43:20.991Z,18.30
2018-07-20T22:45:49.475Z,18.20
2018-07-20T22:50:45.775Z,18.10
2018-07-20T23:00:38.113Z,17.80
2018-07-20T23:03:06.604Z,17.80
2018-07-20T23:05:34.922Z,17.70
2018-07-20T23:08:03.216Z,17.60
2018-07-20T23:10:31.732Z,17.60
2018-07-20T23:15:28.106Z,17.40
2018-07-20T23:17:57.545Z,17.40
2018-07-20T23:20:25.954Z,17.40
2018-07-20T23:22:54.333Z,17.30
2018-07-20T23:25:22.965Z,17.20
2018-07-20T23:27:51.197Z,17.20
2018-07-20T23:30:19.225Z,17.20
2018-07-20T23:32:47.529Z,17.20
2018-07-20T23:37:43.850Z,17.10
2018-07-20T23:40:12.116Z,17.10
2018-07-20T23:45:09.125Z,17.00
2018-07-20T23:50:07.436Z,17.00
2018-07-20T23:52:40.134Z,16.90
2018-07-20T23:55:08.728Z,16.90
2018-07-20T23:57:36.943Z,16.90
